Time;durP1;ratioP1;P1;durP2;ratioP2;P2;SDS_P1;SDS_P2;PMS_P1;PMS_P2;Temp;Humidity;BMP_temperature;BMP_pressure;BME280_temperature;BME280_humidity;BME280_pressure;Samples;Min_cycle;Max_cycle;Signal;HPM_P1;HPM_P2
2022/08/16 00:01:16;;;;;;;1999.90;999.90;;;;;;;;;;5114712;27;20484;-76
2022/08/16 00:03:44;;;;;;;1999.90;999.90;;;;;;;;;;5115793;27;20407;-76
2022/08/16 00:06:12;;;;;;;1999.90;999.90;;;;;;;;;;5102126;27;20392;-76
2022/08/16 00:08:42;;;;;;;1999.90;999.90;;;;;;;;;;5121145;27;20480;-75
2022/08/16 00:11:12;;;;;;;1999.90;999.90;;;;;;;;;;5096032;27;20490;-76
2022/08/16 00:13:42;;;;;;;1999.90;999.90;;;;;;;;;;5138869;22;20496;-77
2022/08/16 00:16:22;;;;;;;1999.90;999.90;;;;;;;;;;5045641;28;20393;-76
2022/08/16 00:19:10;;;;;;;1999.90;999.90;;;;;;;;;;5061826;28;20402;-77
2022/08/16 00:21:41;;;;;;;1999.90;999.90;;;;;;;;;;5040692;28;20735;-77
2022/08/16 00:24:09;;;;;;;1999.90;999.90;;;;;;;;;;5074064;28;20439;-78
2022/08/16 00:26:39;;;;;;;1999.90;999.90;;;;;;;;;;5080784;28;20404;-79
2022/08/16 00:29:13;;;;;;;1999.90;999.90;;;;;;;;;;5066470;28;20405;-80
2022/08/16 00:31:45;;;;;;;1999.90;999.90;;;;;;;;;;5082038;28;20480;-77
2022/08/16 00:34:27;;;;;;;1999.90;999.90;;;;;;;;;;5079342;28;20461;-79
2022/08/16 00:37:15;;;;;;;1999.90;999.90;;;;;;;;;;5060678;28;20891;-78
2022/08/16 00:39:44;;;;;;;1999.90;999.90;;;;;;;;;;5044109;28;20455;-77
2022/08/16 00:42:14;;;;;;;1999.90;999.90;;;;;;;;;;5044732;28;21789;-77
2022/08/16 00:45:00;;;;;;;1999.90;999.90;;;;;;;;;;5045220;28;20887;-77
2022/08/16 00:47:35;;;;;;;1999.90;999.90;;;;;;;;;;5059866;28;20405;-76
2022/08/16 00:50:04;;;;;;;1999.90;999.90;;;;;;;;;;5059419;28;20855;-75
2022/08/16 00:52:38;;;;;;;1999.90;999.90;;;;;;;;;;5058198;28;20392;-76
2022/08/16 00:55:17;;;;;;;1999.90;999.90;;;;;;;;;;5060500;28;21009;-78
2022/08/16 00:57:45;;;;;;;1999.90;999.90;;;;;;;;;;5061772;28;20408;-77
2022/08/16 01:00:27;;;;;;;1999.90;999.90;;;;;;;;;;5063628;28;20404;-77
2022/08/16 01:02:58;;;;;;;1999.90;999.90;;;;;;;;;;5059678;28;20392;-76
2022/08/16 01:05:26;;;;;;;1999.90;999.90;;;;;;;;;;5063860;28;20466;-77
2022/08/16 01:07:56;;;;;;;1999.90;999.90;;;;;;;;;;5058784;28;20466;-78
2022/08/16 01:10:26;;;;;;;1999.90;999.90;;;;;;;;;;5079890;28;20483;-76
2022/08/16 01:13:02;;;;;;;1999.90;999.90;;;;;;;;;;5057663;28;20399;-75
2022/08/16 01:15:33;;;;;;;1999.90;999.90;;;;;;;;;;5079722;28;20917;-77
2022/08/16 01:18:03;;;;;;;1999.90;999.90;;;;;;;;;;5046784;28;20624;-78
2022/08/16 01:20:32;;;;;;;1999.90;999.90;;;;;;;;;;5081846;28;20404;-78
2022/08/16 01:23:04;;;;;;;1999.90;999.90;;;;;;;;;;5082424;28;20407;-77
2022/08/16 01:25:38;;;;;;;1999.90;999.90;;;;;;;;;;5063230;28;20416;-77
2022/08/16 01:28:07;;;;;;;1999.90;999.90;;;;;;;;;;5078607;28;20429;-77
2022/08/16 01:30:37;;;;;;;1999.90;999.90;;;;;;;;;;5044526;28;20400;-77
2022/08/16 01:33:17;;;;;;;1999.90;999.90;;;;;;;;;;5080289;28;20389;-77
2022/08/16 01:35:56;;;;;;;1999.90;999.90;;;;;;;;;;5062828;28;20486;-78
2022/08/16 01:38:27;;;;;;;1999.90;999.90;;;;;;;;;;5065403;28;20496;-76
2022/08/16 01:41:00;;;;;;;1999.90;999.90;;;;;;;;;;5050398;28;20406;-77
2022/08/16 01:43:30;;;;;;;1999.90;999.90;;;;;;;;;;5078342;28;20416;-76
2022/08/16 01:46:00;;;;;;;1999.90;999.90;;;;;;;;;;5049374;28;20423;-77
2022/08/16 01:48:49;;;;;;;1999.90;999.90;;;;;;;;;;5066187;28;20397;-77
2022/08/16 01:51:19;;;;;;;1999.90;999.90;;;;;;;;;;5082830;28;20405;-77
2022/08/16 01:53:50;;;;;;;1999.90;999.90;;;;;;;;;;5064533;28;20488;-78
2022/08/16 01:56:30;;;;;;;1999.90;999.90;;;;;;;;;;5061191;28;20497;-76
2022/08/16 01:58:59;;;;;;;1999.90;999.90;;;;;;;;;;5056810;28;20403;-77
2022/08/16 02:01:27;;;;;;;1999.90;999.90;;;;;;;;;;5062746;28;20412;-78
2022/08/16 02:03:57;;;;;;;1999.90;999.90;;;;;;;;;;5062685;28;20949;-77
2022/08/16 02:06:39;;;;;;;1999.90;999.90;;;;;;;;;;5060913;28;20432;-76
2022/08/16 02:09:15;;;;;;;1999.90;999.90;;;;;;;;;;5056115;28;20407;-78
2022/08/16 02:11:48;;;;;;;1999.90;999.90;;;;;;;;;;5064108;28;20500;-76
2022/08/16 02:14:21;;;;;;;1999.90;999.90;;;;;;;;;;5074639;28;20484;-77
2022/08/16 02:16:54;;;;;;;1999.90;999.90;;;;;;;;;;5065763;28;20494;-75
2022/08/16 02:19:23;;;;;;;1999.90;999.90;;;;;;;;;;5047951;28;20397;-75
2022/08/16 02:22:12;;;;;;;1999.90;999.90;;;;;;;;;;5082810;28;20398;-77
2022/08/16 02:25:00;;;;;;;1999.90;999.90;;;;;;;;;;5061578;28;20395;-77
2022/08/16 02:27:52;;;;;;;1999.90;999.90;;;;;;;;;;5086950;28;20521;-76
2022/08/16 02:30:21;;;;;;;1999.90;999.90;;;;;;;;;;5077504;28;20443;-76
2022/08/16 02:33:09;;;;;;;1999.90;999.90;;;;;;;;;;5065502;28;20926;-77
2022/08/16 02:35:38;;;;;;;1999.90;999.90;;;;;;;;;;5049354;28;20412;-76
2022/08/16 02:38:23;;;;;;;1999.90;999.90;;;;;;;;;;5063970;28;20397;-77
2022/08/16 02:40:53;;;;;;;1999.90;999.90;;;;;;;;;;5049560;28;20890;-75
2022/08/16 02:43:23;;;;;;;1999.90;999.90;;;;;;;;;;5075147;28;20397;-76
2022/08/16 02:45:54;;;;;;;1999.90;999.90;;;;;;;;;;5044661;28;20389;-76
2022/08/16 02:48:23;;;;;;;1999.90;999.90;;;;;;;;;;5065408;28;21006;-77
2022/08/16 02:50:58;;;;;;;1999.90;999.90;;;;;;;;;;5048272;28;20401;-75
2022/08/16 02:53:42;;;;;;;1999.90;999.90;;;;;;;;;;5047823;28;20412;-76
2022/08/16 02:56:11;;;;;;;1999.90;999.90;;;;;;;;;;5078171;28;20490;-76
2022/08/16 02:58:44;;;;;;;1999.90;999.90;;;;;;;;;;5060988;28;20417;-76
2022/08/16 03:01:13;;;;;;;1999.90;999.90;;;;;;;;;;5076857;28;20487;-78
2022/08/16 03:04:04;;;;;;;1999.90;999.90;;;;;;;;;;5081893;27;20393;-77
2022/08/16 03:06:52;;;;;;;1999.90;999.90;;;;;;;;;;5062840;28;20395;-76
2022/08/16 03:09:36;;;;;;;1999.90;999.90;;;;;;;;;;5050334;28;20915;-77
2022/08/16 03:12:04;;;;;;;1999.90;999.90;;;;;;;;;;5049211;28;21238;-77
2022/08/16 03:14:35;;;;;;;1999.90;999.90;;;;;;;;;;5080882;28;20415;-78
2022/08/16 03:17:05;;;;;;;1999.90;999.90;;;;;;;;;;5080999;28;20412;-77
2022/08/16 03:19:37;;;;;;;1999.90;999.90;;;;;;;;;;5050503;28;20409;-76
2022/08/16 03:22:25;;;;;;;1999.90;999.90;;;;;;;;;;5047710;28;20826;-75
2022/08/16 03:24:58;;;;;;;1999.90;999.90;;;;;;;;;;5051302;28;20739;-76
2022/08/16 03:27:30;;;;;;;1999.90;999.90;;;;;;;;;;5082050;28;20891;-76
2022/08/16 03:30:02;;;;;;;1999.90;999.90;;;;;;;;;;5065933;28;20482;-76
2022/08/16 03:32:47;;;;;;;1999.90;999.90;;;;;;;;;;5051505;28;20470;-77
2022/08/16 03:35:20;;;;;;;1999.90;999.90;;;;;;;;;;5085553;28;20397;-77
2022/08/16 03:37:49;;;;;;;1999.90;999.90;;;;;;;;;;5079523;28;20390;-77
2022/08/16 03:40:34;;;;;;;1999.90;999.90;;;;;;;;;;5079689;28;20477;-76
2022/08/16 03:43:12;;;;;;;1999.90;999.90;;;;;;;;;;5067727;28;21251;-77
2022/08/16 03:45:50;;;;;;;1999.90;999.90;;;;;;;;;;5063301;28;20435;-77
2022/08/16 03:48:22;;;;;;;1999.90;999.90;;;;;;;;;;5046578;28;20416;-76
2022/08/16 03:51:08;;;;;;;1999.90;999.90;;;;;;;;;;5062985;28;20408;-77
2022/08/16 03:53:44;;;;;;;1999.90;999.90;;;;;;;;;;5068264;28;20396;-77
2022/08/16 03:56:27;;;;;;;1999.90;999.90;;;;;;;;;;5080082;28;20400;-76
2022/08/16 03:58:58;;;;;;;1999.90;999.90;;;;;;;;;;5050955;28;20496;-75
2022/08/16 04:01:33;;;;;;;1999.90;999.90;;;;;;;;;;5059867;28;20424;-76
2022/08/16 04:04:01;;;;;;;1999.90;999.90;;;;;;;;;;5047127;28;20820;-76
2022/08/16 04:06:30;;;;;;;1999.90;999.90;;;;;;;;;;5046031;28;21380;-76
2022/08/16 04:08:58;;;;;;;1999.90;999.90;;;;;;;;;;5050843;28;20760;-76
2022/08/16 04:11:27;;;;;;;1999.90;999.90;;;;;;;;;;5062624;28;20417;-76
2022/08/16 04:14:04;;;;;;;1999.90;999.90;;;;;;;;;;5078274;28;21209;-76
2022/08/16 04:16:54;;;;;;;1999.90;999.90;;;;;;;;;;5064396;28;20518;-76
2022/08/16 04:19:34;;;;;;;1999.90;999.90;;;;;;;;;;5048200;28;20412;-77
2022/08/16 04:22:02;;;;;;;1999.90;999.90;;;;;;;;;;5051602;28;20440;-77
2022/08/16 04:24:43;;;;;;;1999.90;999.90;;;;;;;;;;5052715;28;22496;-76
2022/08/16 04:27:28;;;;;;;1999.90;999.90;;;;;;;;;;5054522;28;20394;-78
2022/08/16 04:29:59;;;;;;;1999.90;999.90;;;;;;;;;;5050765;28;20503;-77
2022/08/16 04:32:34;;;;;;;1999.90;999.90;;;;;;;;;;5090138;28;20422;-78
2022/08/16 04:35:04;;;;;;;1999.90;999.90;;;;;;;;;;5076185;28;20393;-77
2022/08/16 04:37:39;;;;;;;1999.90;999.90;;;;;;;;;;5063621;28;20393;-78
2022/08/16 04:40:20;;;;;;;1999.90;999.90;;;;;;;;;;5055865;28;20353;-78
2022/08/16 04:42:53;;;;;;;1999.90;999.90;;;;;;;;;;5091100;28;21171;-78
2022/08/16 04:45:24;;;;;;;1999.90;999.90;;;;;;;;;;5070690;28;20411;-77
2022/08/16 04:48:14;;;;;;;1999.90;999.90;;;;;;;;;;5063722;28;20803;-77
2022/08/16 04:51:01;;;;;;;1999.90;999.90;;;;;;;;;;5081633;28;20492;-77
2022/08/16 04:53:44;;;;;;;1999.90;999.90;;;;;;;;;;5046760;28;20405;-77
2022/08/16 04:56:14;;;;;;;1999.90;999.90;;;;;;;;;;5068125;28;21183;-81
2022/08/16 04:58:43;;;;;;;1999.90;999.90;;;;;;;;;;5063050;28;20468;-75
2022/08/16 05:01:17;;;;;;;1999.90;999.90;;;;;;;;;;5047775;28;20397;-75
2022/08/16 05:03:47;;;;;;;1999.90;999.90;;;;;;;;;;5083273;28;20413;-75
2022/08/16 05:06:37;;;;;;;1999.90;999.90;;;;;;;;;;5066002;28;20415;-75
2022/08/16 05:09:20;;;;;;;1999.90;999.90;;;;;;;;;;5041871;28;20492;-75
2022/08/16 05:11:52;;;;;;;1999.90;999.90;;;;;;;;;;5045433;28;20427;-77
2022/08/16 05:14:24;;;;;;;1999.90;999.90;;;;;;;;;;5045989;28;20427;-74
2022/08/16 05:17:12;;;;;;;1999.90;999.90;;;;;;;;;;5059408;28;20403;-75
2022/08/16 05:19:42;;;;;;;1999.90;999.90;;;;;;;;;;5077420;28;21020;-74
2022/08/16 05:22:24;;;;;;;1999.90;999.90;;;;;;;;;;5045848;28;20393;-75
2022/08/16 05:24:56;;;;;;;1999.90;999.90;;;;;;;;;;5069078;28;20420;-81
2022/08/16 05:27:24;;;;;;;1999.90;999.90;;;;;;;;;;5068087;28;20493;-80
2022/08/16 05:29:53;;;;;;;1999.90;999.90;;;;;;;;;;5047074;28;20389;-80
2022/08/16 05:32:31;;;;;;;1999.90;999.90;;;;;;;;;;5067644;28;20501;-80
2022/08/16 05:35:16;;;;;;;1999.90;999.90;;;;;;;;;;5067776;28;20899;-79
2022/08/16 05:37:58;;;;;;;1999.90;999.90;;;;;;;;;;5064405;28;21277;-79
2022/08/16 05:40:26;;;;;;;1999.90;999.90;;;;;;;;;;5081276;28;21277;-76
2022/08/16 05:42:54;;;;;;;1999.90;999.90;;;;;;;;;;5064800;28;20433;-78
2022/08/16 05:45:23;;;;;;;1999.90;999.90;;;;;;;;;;5078049;28;20945;-77
2022/08/16 05:47:58;;;;;;;1999.90;999.90;;;;;;;;;;5049777;28;20389;-76
2022/08/16 05:50:49;;;;;;;1999.90;999.90;;;;;;;;;;5086428;28;20401;-77
2022/08/16 05:53:20;;;;;;;1999.90;999.90;;;;;;;;;;5044958;28;20877;-76
2022/08/16 05:56:12;;;;;;;1999.90;999.90;;;;;;;;;;5085246;28;20408;-78
2022/08/16 05:58:47;;;;;;;1999.90;999.90;;;;;;;;;;5044561;28;20389;-76
2022/08/16 06:01:16;;;;;;;1999.90;999.90;;;;;;;;;;5045805;28;20545;-76
2022/08/16 06:03:48;;;;;;;1999.90;999.90;;;;;;;;;;5049700;28;20440;-76
2022/08/16 06:06:26;;;;;;;1999.90;999.90;;;;;;;;;;5047150;28;20923;-76
2022/08/16 06:08:57;;;;;;;1999.90;999.90;;;;;;;;;;5048126;28;20398;-75
2022/08/16 06:11:25;;;;;;;1999.90;999.90;;;;;;;;;;5047514;28;21228;-77
2022/08/16 06:13:59;;;;;;;1999.90;999.90;;;;;;;;;;5048953;28;20416;-76
2022/08/16 06:16:34;;;;;;;1999.90;999.90;;;;;;;;;;5051382;28;20518;-77
2022/08/16 06:19:02;;;;;;;1999.90;999.90;;;;;;;;;;5046678;28;20386;-75
2022/08/16 06:21:34;;;;;;;1999.90;999.90;;;;;;;;;;5047217;28;20401;-74
2022/08/16 06:24:04;;;;;;;1999.90;999.90;;;;;;;;;;5044678;28;20408;-75
2022/08/16 06:26:52;;;;;;;1999.90;999.90;;;;;;;;;;5061653;28;21230;-77
2022/08/16 06:29:29;;;;;;;1999.90;999.90;;;;;;;;;;5057902;28;20392;-77
2022/08/16 06:31:58;;;;;;;1999.90;999.90;;;;;;;;;;5057317;28;20392;-77
2022/08/16 06:34:27;;;;;;;1999.90;999.90;;;;;;;;;;5054937;28;20413;-75
2022/08/16 06:37:16;;;;;;;1999.90;999.90;;;;;;;;;;5058948;28;20443;-76
2022/08/16 06:39:45;;;;;;;1999.90;999.90;;;;;;;;;;5079103;28;20404;-76
2022/08/16 06:42:38;;;;;;;1999.90;999.90;;;;;;;;;;5060674;28;20840;-76
2022/08/16 06:45:36;;;;;;;1999.90;999.90;;;;;;;;;;5067049;28;20413;-77
2022/08/16 06:48:13;;;;;;;1999.90;999.90;;;;;;;;;;5061129;28;20401;-76
2022/08/16 06:50:47;;;;;;;1999.90;999.90;;;;;;;;;;5065534;28;20893;-75
2022/08/16 06:53:16;;;;;;;1999.90;999.90;;;;;;;;;;5063629;28;21010;-75
2022/08/16 06:55:58;;;;;;;1999.90;999.90;;;;;;;;;;5046479;28;20385;-75
2022/08/16 06:58:34;;;;;;;1999.90;999.90;;;;;;;;;;5048406;28;20516;-74
2022/08/16 07:01:09;;;;;;;1999.90;999.90;;;;;;;;;;5078393;28;20479;-75
2022/08/16 07:03:48;;;;;;;1999.90;999.90;;;;;;;;;;5060034;28;20412;-75
2022/08/16 07:06:25;;;;;;;1999.90;999.90;;;;;;;;;;5079501;28;20401;-76
2022/08/16 07:08:59;;;;;;;1999.90;999.90;;;;;;;;;;5076020;28;20436;-77
2022/08/16 07:11:31;;;;;;;1999.90;999.90;;;;;;;;;;5061591;28;20395;-75
2022/08/16 07:14:14;;;;;;;1999.90;999.90;;;;;;;;;;5075902;28;21717;-75
2022/08/16 07:16:57;;;;;;;1999.90;999.90;;;;;;;;;;5045518;28;20393;-75
2022/08/16 07:19:26;;;;;;;1999.90;999.90;;;;;;;;;;5066347;28;20453;-75
2022/08/16 07:22:15;;;;;;;1999.90;999.90;;;;;;;;;;5082849;28;20385;-75
2022/08/16 07:25:05;;;;;;;1999.90;999.90;;;;;;;;;;5067505;28;20476;-75
2022/08/16 07:27:33;;;;;;;1999.90;999.90;;;;;;;;;;5069529;28;20871;-75
2022/08/16 07:30:10;;;;;;;1999.90;999.90;;;;;;;;;;5051893;28;21683;-75
2022/08/16 07:33:01;;;;;;;1999.90;999.90;;;;;;;;;;5067710;28;20389;-75
2022/08/16 07:35:29;;;;;;;1999.90;999.90;;;;;;;;;;5052559;28;20419;-75
2022/08/16 07:37:57;;;;;;;1999.90;999.90;;;;;;;;;;5051399;28;20960;-75
2022/08/16 07:40:36;;;;;;;1999.90;999.90;;;;;;;;;;5065935;28;20409;-75
2022/08/16 07:43:25;;;;;;;1999.90;999.90;;;;;;;;;;5049487;28;20384;-74
2022/08/16 07:45:58;;;;;;;1999.90;999.90;;;;;;;;;;5052831;28;20447;-75
2022/08/16 07:48:29;;;;;;;1999.90;999.90;;;;;;;;;;5067037;28;20497;-75
2022/08/16 07:50:57;;;;;;;1999.90;999.90;;;;;;;;;;5068984;28;20452;-74
2022/08/16 07:53:31;;;;;;;1999.90;999.90;;;;;;;;;;5052497;28;22617;-74
2022/08/16 07:56:00;;;;;;;1999.90;999.90;;;;;;;;;;5049008;28;20890;-75
2022/08/16 07:58:35;;;;;;;1999.90;999.90;;;;;;;;;;5068433;28;20425;-76
2022/08/16 08:01:13;;;;;;;1999.90;999.90;;;;;;;;;;5066833;28;20416;-76
2022/08/16 08:03:53;;;;;;;1999.90;999.90;;;;;;;;;;5068001;28;20389;-75
2022/08/16 08:06:28;;;;;;;1999.90;999.90;;;;;;;;;;5086032;28;20393;-74
2022/08/16 08:09:02;;;;;;;1999.90;999.90;;;;;;;;;;5050329;28;20391;-75
2022/08/16 08:11:31;;;;;;;1999.90;999.90;;;;;;;;;;5048383;28;22657;-75
2022/08/16 08:14:02;;;;;;;1999.90;999.90;;;;;;;;;;5047175;28;20416;-75
2022/08/16 08:16:41;;;;;;;1999.90;999.90;;;;;;;;;;5059798;28;20393;-74
2022/08/16 08:19:21;;;;;;;1999.90;999.90;;;;;;;;;;5062200;28;20509;-75
2022/08/16 08:21:52;;;;;;;1999.90;999.90;;;;;;;;;;5044416;28;20414;-75
2022/08/16 08:24:38;;;;;;;1999.90;999.90;;;;;;;;;;5067522;28;20398;-76
2022/08/16 08:27:12;;;;;;;1999.90;999.90;;;;;;;;;;5044844;28;20496;-75
2022/08/16 08:29:50;;;;;;;1999.90;999.90;;;;;;;;;;5059713;28;20436;-75
2022/08/16 08:32:38;;;;;;;1999.90;999.90;;;;;;;;;;5080600;28;20909;-75
2022/08/16 08:35:27;;;;;;;1999.90;999.90;;;;;;;;;;5042551;28;20501;-75
2022/08/16 08:37:57;;;;;;;1999.90;999.90;;;;;;;;;;5060714;28;20412;-75
2022/08/16 08:40:27;;;;;;;1999.90;999.90;;;;;;;;;;5081207;28;20401;-75
2022/08/16 08:42:59;;;;;;;1999.90;999.90;;;;;;;;;;5065767;28;20875;-75
2022/08/16 08:45:54;;;;;;;1999.90;999.90;;;;;;;;;;5047121;28;20401;-75
2022/08/16 08:48:24;;;;;;;1999.90;999.90;;;;;;;;;;5045547;28;20397;-75
2022/08/16 08:51:05;;;;;;;1999.90;999.90;;;;;;;;;;5077327;28;20397;-75
2022/08/16 08:53:41;;;;;;;1999.90;999.90;;;;;;;;;;5080370;28;20429;-75
2022/08/16 08:56:08;;;;;;;1999.90;999.90;;;;;;;;;;5068761;28;20400;-74
2022/08/16 08:58:51;;;;;;;1999.90;999.90;;;;;;;;;;5062894;28;20413;-74
2022/08/16 09:01:38;;;;;;;1999.90;999.90;;;;;;;;;;5063894;28;21014;-75
2022/08/16 09:04:23;;;;;;;1999.90;999.90;;;;;;;;;;5046777;28;20447;-74
2022/08/16 09:06:53;;;;;;;1999.90;999.90;;;;;;;;;;5067705;28;20396;-75
2022/08/16 09:09:21;;;;;;;1999.90;999.90;;;;;;;;;;5062954;28;21233;-76
2022/08/16 09:11:54;;;;;;;1999.90;999.90;;;;;;;;;;5066749;28;20467;-74
2022/08/16 09:14:44;;;;;;;1999.90;999.90;;;;;;;;;;5064228;28;20439;-73
2022/08/16 09:17:21;;;;;;;1999.90;999.90;;;;;;;;;;5064147;28;20397;-74
2022/08/16 09:20:13;;;;;;;1999.90;999.90;;;;;;;;;;5044214;28;20413;-75
2022/08/16 09:22:43;;;;;;;1999.90;999.90;;;;;;;;;;5064325;28;20810;-74
2022/08/16 09:25:21;;;;;;;1999.90;999.90;;;;;;;;;;5063734;28;20403;-75
2022/08/16 09:28:01;;;;;;;1999.90;999.90;;;;;;;;;;5061126;28;21362;-74
2022/08/16 09:30:43;;;;;;;1999.90;999.90;;;;;;;;;;5047604;28;20436;-75
2022/08/16 09:33:17;;;;;;;1999.90;999.90;;;;;;;;;;5065643;28;20771;-74
2022/08/16 09:35:46;;;;;;;1999.90;999.90;;;;;;;;;;5064422;28;20403;-74
2022/08/16 09:38:21;;;;;;;1999.90;999.90;;;;;;;;;;5064895;28;20824;-74
2022/08/16 09:40:59;;;;;;;1999.90;999.90;;;;;;;;;;5082408;28;20405;-74
2022/08/16 09:43:27;;;;;;;1999.90;999.90;;;;;;;;;;5072972;28;20397;-74
2022/08/16 09:46:16;;;;;;;1999.90;999.90;;;;;;;;;;5064026;28;20538;-75
2022/08/16 09:49:04;;;;;;;1999.90;999.90;;;;;;;;;;5086022;28;21180;-73
2022/08/16 09:51:35;;;;;;;1999.90;999.90;;;;;;;;;;5081025;28;20389;-75
2022/08/16 09:54:04;;;;;;;1999.90;999.90;;;;;;;;;;5088141;28;20397;-74
2022/08/16 09:56:32;;;;;;;1999.90;999.90;;;;;;;;;;5088784;28;20417;-74
2022/08/16 09:59:01;;;;;;;1999.90;999.90;;;;;;;;;;5086463;28;20381;-74
2022/08/16 10:01:37;;;;;;;1999.90;999.90;;;;;;;;;;5082749;28;20539;-74
2022/08/16 10:04:10;;;;;;;1999.90;999.90;;;;;;;;;;5073902;28;20387;-74
2022/08/16 10:06:58;;;;;;;1999.90;999.90;;;;;;;;;;5085404;28;20397;-73
2022/08/16 10:09:28;;;;;;;1999.90;999.90;;;;;;;;;;5079501;28;20454;-75
2022/08/16 10:15:09;;;;;;;1999.90;999.90;;;;;;;;;;5074567;28;20859;-74
2022/08/16 10:17:44;;;;;;;1999.90;999.90;;;;;;;;;;5062947;28;21386;-74
2022/08/16 10:20:30;;;;;;;1999.90;999.90;;;;;;;;;;5090589;28;20432;-76
2022/08/16 10:22:58;;;;;;;1999.90;999.90;;;;;;;;;;5087835;28;20606;-74
2022/08/16 10:25:35;;;;;;;1999.90;999.90;;;;;;;;;;5078598;28;31248;-75
2022/08/16 10:28:23;;;;;;;1999.90;999.90;;;;;;;;;;5072242;28;20416;-74
2022/08/16 10:30:55;;;;;;;1999.90;999.90;;;;;;;;;;5065799;28;20393;-75
2022/08/16 10:33:27;;;;;;;1999.90;999.90;;;;;;;;;;5066256;28;20516;-74
2022/08/16 10:35:57;;;;;;;1999.90;999.90;;;;;;;;;;5079867;28;20398;-75
2022/08/16 10:38:30;;;;;;;1999.90;999.90;;;;;;;;;;5066308;28;20444;-74
2022/08/16 10:41:00;;;;;;;1999.90;999.90;;;;;;;;;;5047162;28;20381;-74
2022/08/16 10:43:28;;;;;;;1999.90;999.90;;;;;;;;;;5068025;28;20432;-74
2022/08/16 10:45:58;;;;;;;1999.90;999.90;;;;;;;;;;5085621;28;20393;-74
2022/08/16 10:48:29;;;;;;;1999.90;999.90;;;;;;;;;;5066955;28;20413;-74
2022/08/16 10:50:58;;;;;;;1999.90;999.90;;;;;;;;;;5082293;28;20783;-74
2022/08/16 10:53:26;;;;;;;1999.90;999.90;;;;;;;;;;5082204;28;20387;-74
2022/08/16 10:56:00;;;;;;;1999.90;999.90;;;;;;;;;;5050862;28;20472;-74
2022/08/16 10:58:30;;;;;;;1999.90;999.90;;;;;;;;;;5066494;28;20419;-75
2022/08/16 11:01:01;;;;;;;1999.90;999.90;;;;;;;;;;5049007;28;20397;-74
2022/08/16 11:03:51;;;;;;;1999.90;999.90;;;;;;;;;;5060822;28;20396;-76
2022/08/16 11:06:24;;;;;;;1999.90;999.90;;;;;;;;;;5083762;28;20403;-76
2022/08/16 11:08:57;;;;;;;1999.90;999.90;;;;;;;;;;5078257;28;20417;-75
2022/08/16 11:11:45;;;;;;;1999.90;999.90;;;;;;;;;;5062667;28;21249;-75
2022/08/16 11:14:32;;;;;;;1999.90;999.90;;;;;;;;;;5081106;28;20941;-75
2022/08/16 11:17:01;;;;;;;1999.90;999.90;;;;;;;;;;5065684;28;20396;-75
2022/08/16 11:19:40;;;;;;;1999.90;999.90;;;;;;;;;;5082132;28;20832;-74
2022/08/16 11:22:28;;;;;;;1999.90;999.90;;;;;;;;;;5078426;28;20391;-74
2022/08/16 11:25:15;;;;;;;1999.90;999.90;;;;;;;;;;5082497;28;20389;-75
2022/08/16 11:28:03;;;;;;;1999.90;999.90;;;;;;;;;;5085067;28;20385;-75
2022/08/16 11:30:32;;;;;;;1999.90;999.90;;;;;;;;;;5072203;28;20514;-76
2022/08/16 11:33:06;;;;;;;1999.90;999.90;;;;;;;;;;5067937;28;20527;-75
2022/08/16 11:35:35;;;;;;;1999.90;999.90;;;;;;;;;;5066148;28;20440;-76
2022/08/16 11:38:13;;;;;;;1999.90;999.90;;;;;;;;;;5072144;28;20389;-76
2022/08/16 11:41:01;;;;;;;1999.90;999.90;;;;;;;;;;5066213;28;20572;-75
2022/08/16 11:43:29;;;;;;;1999.90;999.90;;;;;;;;;;5087207;28;20389;-76
2022/08/16 11:46:09;;;;;;;1999.90;999.90;;;;;;;;;;5083889;28;20991;-75
2022/08/16 11:48:57;;;;;;;1999.90;999.90;;;;;;;;;;5085928;28;20490;-74
2022/08/16 11:51:27;;;;;;;1999.90;999.90;;;;;;;;;;5061404;28;20420;-74
2022/08/16 11:53:55;;;;;;;1999.90;999.90;;;;;;;;;;5086747;28;20431;-76
2022/08/16 11:56:23;;;;;;;1999.90;999.90;;;;;;;;;;5068627;28;20444;-75
2022/08/16 11:59:10;;;;;;;1999.90;999.90;;;;;;;;;;5085287;28;20389;-76
2022/08/16 12:01:39;;;;;;;1999.90;999.90;;;;;;;;;;5083273;28;20412;-74
2022/08/16 12:04:25;;;;;;;1999.90;999.90;;;;;;;;;;5083389;28;20413;-76
2022/08/16 12:06:55;;;;;;;1999.90;999.90;;;;;;;;;;5062517;28;20491;-75
2022/08/16 12:09:23;;;;;;;1999.90;999.90;;;;;;;;;;5067209;28;20451;-74
2022/08/16 12:11:52;;;;;;;1999.90;999.90;;;;;;;;;;5078423;28;20428;-75
2022/08/16 12:14:20;;;;;;;1999.90;999.90;;;;;;;;;;5064295;28;20385;-74
2022/08/16 12:16:50;;;;;;;1999.90;999.90;;;;;;;;;;5079406;28;20415;-74
2022/08/16 12:19:24;;;;;;;1999.90;999.90;;;;;;;;;;5083874;28;20376;-77
2022/08/16 12:22:04;;;;;;;1999.90;999.90;;;;;;;;;;5082294;28;20556;-77
2022/08/16 12:24:47;;;;;;;1999.90;999.90;;;;;;;;;;5084955;28;21024;-76
2022/08/16 12:27:19;;;;;;;1999.90;999.90;;;;;;;;;;5084725;28;20416;-77
2022/08/16 12:29:50;;;;;;;1999.90;999.90;;;;;;;;;;5083656;28;20428;-75
2022/08/16 12:32:19;;;;;;;1999.90;999.90;;;;;;;;;;5067410;28;20417;-77
2022/08/16 12:35:06;;;;;;;1999.90;999.90;;;;;;;;;;5060728;28;21077;-76
2022/08/16 12:37:35;;;;;;;1999.90;999.90;;;;;;;;;;5050308;28;20404;-78
2022/08/16 12:40:07;;;;;;;1999.90;999.90;;;;;;;;;;5079446;28;20397;-78
2022/08/16 12:42:52;;;;;;;1999.90;999.90;;;;;;;;;;5082610;28;20401;-76
2022/08/16 12:45:22;;;;;;;1999.90;999.90;;;;;;;;;;5066562;28;20399;-78
2022/08/16 12:50:56;;;;;;;1999.90;999.90;;;;;;;;;;5065722;28;20569;-80
2022/08/16 12:53:29;;;;;;;1999.90;999.90;;;;;;;;;;5080224;28;20409;-80
2022/08/16 12:55:58;;;;;;;1999.90;999.90;;;;;;;;;;5067054;28;20436;-80
2022/08/16 12:58:27;;;;;;;1999.90;999.90;;;;;;;;;;5075191;28;20405;-77
2022/08/16 13:01:15;;;;;;;1999.90;999.90;;;;;;;;;;5063713;28;20942;-79
2022/08/16 13:03:44;;;;;;;1999.90;999.90;;;;;;;;;;5064334;28;21156;-77
2022/08/16 13:06:12;;;;;;;1999.90;999.90;;;;;;;;;;5065966;28;20381;-77
2022/08/16 13:08:47;;;;;;;1999.90;999.90;;;;;;;;;;5059269;28;20418;-78
2022/08/16 13:11:19;;;;;;;1999.90;999.90;;;;;;;;;;5063900;28;20971;-79
2022/08/16 13:13:51;;;;;;;1999.90;999.90;;;;;;;;;;5085129;28;20405;-78
2022/08/16 13:16:21;;;;;;;1999.90;999.90;;;;;;;;;;5087704;28;20461;-78
2022/08/16 13:18:53;;;;;;;1999.90;999.90;;;;;;;;;;5083103;28;20424;-79
2022/08/16 13:21:21;;;;;;;1999.90;999.90;;;;;;;;;;5083675;28;20821;-78
2022/08/16 13:23:51;;;;;;;1999.90;999.90;;;;;;;;;;5083066;28;20405;-79
2022/08/16 13:26:21;;;;;;;1999.90;999.90;;;;;;;;;;5068011;28;20385;-78
2022/08/16 13:28:49;;;;;;;1999.90;999.90;;;;;;;;;;5077604;28;20420;-77
2022/08/16 13:31:17;;;;;;;1999.90;999.90;;;;;;;;;;5080591;28;20489;-76
2022/08/16 13:33:45;;;;;;;1999.90;999.90;;;;;;;;;;5079725;28;20466;-75
2022/08/16 13:36:13;;;;;;;1999.90;999.90;;;;;;;;;;5064018;28;20412;-77
2022/08/16 13:39:03;;;;;;;1999.90;999.90;;;;;;;;;;5066742;28;20400;-76
2022/08/16 13:41:31;;;;;;;1999.90;999.90;;;;;;;;;;5050514;28;20396;-75
2022/08/16 13:44:00;;;;;;;1999.90;999.90;;;;;;;;;;5064064;28;20490;-76
2022/08/16 13:46:36;;;;;;;1999.90;999.90;;;;;;;;;;5061981;28;20385;-75
2022/08/16 13:49:05;;;;;;;1999.90;999.90;;;;;;;;;;5062599;28;20397;-75
2022/08/16 13:51:33;;;;;;;1999.90;999.90;;;;;;;;;;5056366;28;20484;-75
2022/08/16 13:54:04;;;;;;;1999.90;999.90;;;;;;;;;;5077761;28;20423;-76
2022/08/16 13:56:36;;;;;;;1999.90;999.90;;;;;;;;;;5065144;28;20385;-77
2022/08/16 13:59:06;;;;;;;1999.90;999.90;;;;;;;;;;5079694;28;20385;-77
2022/08/16 14:01:48;;;;;;;1999.90;999.90;;;;;;;;;;5062915;28;20402;-75
2022/08/16 14:04:22;;;;;;;1999.90;999.90;;;;;;;;;;5080392;28;20490;-77
2022/08/16 14:06:54;;;;;;;1999.90;999.90;;;;;;;;;;5061362;28;20397;-77
2022/08/16 14:09:24;;;;;;;1999.90;999.90;;;;;;;;;;5064617;28;20361;-76
2022/08/16 14:11:54;;;;;;;1999.90;999.90;;;;;;;;;;5062219;28;20603;-75
2022/08/16 14:14:22;;;;;;;1999.90;999.90;;;;;;;;;;5049008;28;20405;-76
2022/08/16 14:16:56;;;;;;;1999.90;999.90;;;;;;;;;;5067176;28;20769;-76
2022/08/16 14:19:24;;;;;;;1999.90;999.90;;;;;;;;;;5083450;28;20409;-76
2022/08/16 14:21:55;;;;;;;1999.90;999.90;;;;;;;;;;5081844;28;20389;-77
2022/08/16 14:24:44;;;;;;;1999.90;999.90;;;;;;;;;;5085298;28;20369;-76
2022/08/16 14:27:14;;;;;;;1999.90;999.90;;;;;;;;;;5066383;28;20411;-77
2022/08/16 14:29:42;;;;;;;1999.90;999.90;;;;;;;;;;5073597;28;21206;-78
2022/08/16 14:32:10;;;;;;;1999.90;999.90;;;;;;;;;;5086743;28;20446;-78